sensor_id;sensor_type;location;lat;lon;timestamp;pressure;altitude;pressure_sealevel;temperature;humidity
40075;BME280;26529;51.530;11.754;2022-08-19T00:00:36;99612.09;;;24.99;50.50
40075;BME280;26529;51.530;11.754;2022-08-19T00:03:02;99606.38;;;24.93;50.46
40075;BME280;26529;51.530;11.754;2022-08-19T00:05:27;99608.31;;;24.91;50.56
40075;BME280;26529;51.530;11.754;2022-08-19T00:07:53;99603.44;;;24.87;50.52
40075;BME280;26529;51.530;11.754;2022-08-19T00:10:19;99607.88;;;24.96;50.41
40075;BME280;26529;51.530;11.754;2022-08-19T00:12:45;99607.66;;;24.89;50.63
40075;BME280;26529;51.530;11.754;2022-08-19T00:15:14;99611.72;;;24.93;50.50
40075;BME280;26529;51.530;11.754;2022-08-19T00:17:42;99605.81;;;24.90;50.75
40075;BME280;26529;51.530;11.754;2022-08-19T00:20:10;99605.25;;;24.86;50.72
40075;BME280;26529;51.530;11.754;2022-08-19T00:22:37;99605.66;;;24.91;50.93
40075;BME280;26529;51.530;11.754;2022-08-19T00:25:04;99601.06;;;24.84;51.09
40075;BME280;26529;51.530;11.754;2022-08-19T00:27:30;99595.25;;;24.88;51.59
40075;BME280;26529;51.530;11.754;2022-08-19T00:29:56;99600.34;;;24.82;52.43
40075;BME280;26529;51.530;11.754;2022-08-19T00:32:21;99590.47;;;24.82;51.42
40075;BME280;26529;51.530;11.754;2022-08-19T00:34:47;99590.47;;;24.82;51.85
40075;BME280;26529;51.530;11.754;2022-08-19T00:37:12;99589.88;;;24.88;52.37
40075;BME280;26529;51.530;11.754;2022-08-19T00:39:38;99581.97;;;24.87;52.05
40075;BME280;26529;51.530;11.754;2022-08-19T00:42:03;99583.69;;;24.78;51.70
40075;BME280;26529;51.530;11.754;2022-08-19T00:44:29;99587.38;;;24.77;51.77
40075;BME280;26529;51.530;11.754;2022-08-19T00:46:57;99592.47;;;24.80;51.18
40075;BME280;26529;51.530;11.754;2022-08-19T00:49:30;99591.19;;;24.74;51.65
40075;BME280;26529;51.530;11.754;2022-08-19T00:52:12;99595.88;;;24.72;51.71
40075;BME280;26529;51.530;11.754;2022-08-19T00:54:40;99597.56;;;24.73;51.51
40075;BME280;26529;51.530;11.754;2022-08-19T00:57:09;99600.09;;;24.75;51.77
40075;BME280;26529;51.530;11.754;2022-08-19T00:59:38;99595.03;;;24.72;51.65
40075;BME280;26529;51.530;11.754;2022-08-19T01:02:06;99600.56;;;24.70;51.50
40075;BME280;26529;51.530;11.754;2022-08-19T01:04:32;99594.72;;;24.75;51.20
40075;BME280;26529;51.530;11.754;2022-08-19T01:06:58;99590.66;;;24.71;51.23
40075;BME280;26529;51.530;11.754;2022-08-19T01:09:24;99590.91;;;24.77;51.46
40075;BME280;26529;51.530;11.754;2022-08-19T01:11:50;99593.06;;;24.74;51.71
40075;BME280;26529;51.530;11.754;2022-08-19T01:14:16;99592.06;;;24.75;51.40
40075;BME280;26529;51.530;11.754;2022-08-19T01:16:43;99591.75;;;24.78;51.45
40075;BME280;26529;51.530;11.754;2022-08-19T01:19:16;99599.00;;;24.68;51.33
40075;BME280;26529;51.530;11.754;2022-08-19T01:21:49;99598.00;;;24.69;51.17
40075;BME280;26529;51.530;11.754;2022-08-19T01:24:17;99603.13;;;24.62;51.64
40075;BME280;26529;51.530;11.754;2022-08-19T01:26:44;99613.97;;;24.70;51.23
40075;BME280;26529;51.530;11.754;2022-08-19T01:29:10;99610.47;;;24.60;51.48
40075;BME280;26529;51.530;11.754;2022-08-19T01:31:36;99603.66;;;24.65;51.41
40075;BME280;26529;51.530;11.754;2022-08-19T01:34:05;99607.66;;;24.61;51.52
40075;BME280;26529;51.530;11.754;2022-08-19T01:36:34;99603.56;;;24.57;51.68
40075;BME280;26529;51.530;11.754;2022-08-19T01:39:04;99604.44;;;24.58;51.32
40075;BME280;26529;51.530;11.754;2022-08-19T01:41:32;99606.34;;;24.65;51.52
40075;BME280;26529;51.530;11.754;2022-08-19T01:43:57;99594.84;;;24.55;51.56
40075;BME280;26529;51.530;11.754;2022-08-19T01:46:23;99588.63;;;24.55;51.73
40075;BME280;26529;51.530;11.754;2022-08-19T01:48:49;99588.50;;;24.56;51.52
40075;BME280;26529;51.530;11.754;2022-08-19T01:51:14;99585.66;;;24.58;51.69
40075;BME280;26529;51.530;11.754;2022-08-19T01:53:41;99579.31;;;24.59;51.65
40075;BME280;26529;51.530;11.754;2022-08-19T01:56:06;99574.63;;;24.61;51.40
40075;BME280;26529;51.530;11.754;2022-08-19T01:58:41;99566.66;;;24.51;51.71
40075;BME280;26529;51.530;11.754;2022-08-19T02:01:11;99569.34;;;24.51;52.14
40075;BME280;26529;51.530;11.754;2022-08-19T02:03:38;99567.19;;;24.55;51.98
40075;BME280;26529;51.530;11.754;2022-08-19T02:06:04;99562.16;;;24.51;52.11
40075;BME280;26529;51.530;11.754;2022-08-19T02:08:31;99560.41;;;24.60;51.78
40075;BME280;26529;51.530;11.754;2022-08-19T02:10:57;99552.25;;;24.52;52.03
40075;BME280;26529;51.530;11.754;2022-08-19T02:13:24;99541.47;;;24.62;51.88
40075;BME280;26529;51.530;11.754;2022-08-19T02:15:50;99539.25;;;24.57;52.36
40075;BME280;26529;51.530;11.754;2022-08-19T02:18:15;99529.41;;;24.58;52.31
40075;BME280;26529;51.530;11.754;2022-08-19T02:20:42;99534.50;;;24.51;52.61
40075;BME280;26529;51.530;11.754;2022-08-19T02:23:09;99528.84;;;24.54;52.34
40075;BME280;26529;51.530;11.754;2022-08-19T02:25:35;99525.19;;;24.55;52.61
40075;BME280;26529;51.530;11.754;2022-08-19T02:28:01;99521.81;;;24.53;52.64
40075;BME280;26529;51.530;11.754;2022-08-19T02:30:27;99524.25;;;24.64;52.70
40075;BME280;26529;51.530;11.754;2022-08-19T02:32:53;99518.75;;;24.48;53.07
40075;BME280;26529;51.530;11.754;2022-08-19T02:35:18;99517.75;;;24.49;52.61
40075;BME280;26529;51.530;11.754;2022-08-19T02:37:44;99512.84;;;24.44;52.68
40075;BME280;26529;51.530;11.754;2022-08-19T02:40:29;99504.34;;;24.49;53.15
40075;BME280;26529;51.530;11.754;2022-08-19T02:42:55;99510.25;;;24.52;52.91
40075;BME280;26529;51.530;11.754;2022-08-19T02:45:21;99509.84;;;24.47;53.14
40075;BME280;26529;51.530;11.754;2022-08-19T02:47:48;99502.34;;;24.51;52.63
40075;BME280;26529;51.530;11.754;2022-08-19T02:50:13;99506.41;;;24.55;53.08
40075;BME280;26529;51.530;11.754;2022-08-19T02:52:39;99506.34;;;24.47;52.85
40075;BME280;26529;51.530;11.754;2022-08-19T02:55:06;99517.88;;;24.47;53.31
40075;BME280;26529;51.530;11.754;2022-08-19T02:57:31;99512.53;;;24.47;53.25
40075;BME280;26529;51.530;11.754;2022-08-19T02:59:57;99524.38;;;24.45;53.11
40075;BME280;26529;51.530;11.754;2022-08-19T03:02:23;99504.41;;;24.39;53.38
40075;BME280;26529;51.530;11.754;2022-08-19T03:04:48;99517.94;;;24.37;53.25
40075;BME280;26529;51.530;11.754;2022-08-19T03:07:16;99517.66;;;24.41;53.11
40075;BME280;26529;51.530;11.754;2022-08-19T03:09:42;99520.03;;;24.44;53.31
40075;BME280;26529;51.530;11.754;2022-08-19T03:12:10;99530.50;;;24.37;53.12
40075;BME280;26529;51.530;11.754;2022-08-19T03:14:37;99522.47;;;24.37;53.17
40075;BME280;26529;51.530;11.754;2022-08-19T03:17:03;99526.97;;;24.36;53.37
40075;BME280;26529;51.530;11.754;2022-08-19T03:19:30;99528.38;;;24.41;53.35
40075;BME280;26529;51.530;11.754;2022-08-19T03:21:57;99534.03;;;24.37;53.86
40075;BME280;26529;51.530;11.754;2022-08-19T03:24:22;99545.53;;;24.48;54.05
40075;BME280;26529;51.530;11.754;2022-08-19T03:26:52;99544.44;;;24.41;53.61
40075;BME280;26529;51.530;11.754;2022-08-19T03:29:18;99540.38;;;24.36;53.50
40075;BME280;26529;51.530;11.754;2022-08-19T03:31:45;99537.69;;;24.36;53.57
40075;BME280;26529;51.530;11.754;2022-08-19T03:34:19;99539.69;;;24.34;53.38
40075;BME280;26529;51.530;11.754;2022-08-19T03:36:46;99540.97;;;24.30;53.38
40075;BME280;26529;51.530;11.754;2022-08-19T03:39:13;99544.72;;;24.37;53.35
40075;BME280;26529;51.530;11.754;2022-08-19T03:41:41;99548.72;;;24.33;53.33
40075;BME280;26529;51.530;11.754;2022-08-19T03:44:07;99557.72;;;24.32;52.97
40075;BME280;26529;51.530;11.754;2022-08-19T03:46:34;99569.75;;;24.28;53.22
40075;BME280;26529;51.530;11.754;2022-08-19T03:49:01;99584.28;;;24.25;53.12
40075;BME280;26529;51.530;11.754;2022-08-19T03:51:37;99589.50;;;24.27;53.20
40075;BME280;26529;51.530;11.754;2022-08-19T03:54:05;99605.00;;;24.33;52.84
40075;BME280;26529;51.530;11.754;2022-08-19T03:56:37;99614.13;;;24.41;53.03
40075;BME280;26529;51.530;11.754;2022-08-19T03:59:05;99629.50;;;24.29;53.08
40075;BME280;26529;51.530;11.754;2022-08-19T04:01:31;99639.53;;;24.27;53.28
40075;BME280;26529;51.530;11.754;2022-08-19T04:03:58;99641.78;;;24.31;52.98
40075;BME280;26529;51.530;11.754;2022-08-19T04:06:27;99642.66;;;24.22;53.55
40075;BME280;26529;51.530;11.754;2022-08-19T04:08:54;99646.75;;;24.26;53.01
40075;BME280;26529;51.530;11.754;2022-08-19T04:11:23;99649.72;;;24.23;53.10
40075;BME280;26529;51.530;11.754;2022-08-19T04:13:49;99644.06;;;24.26;53.04
40075;BME280;26529;51.530;11.754;2022-08-19T04:16:18;99637.31;;;24.22;53.10
40075;BME280;26529;51.530;11.754;2022-08-19T04:18:45;99633.63;;;24.23;52.91
40075;BME280;26529;51.530;11.754;2022-08-19T04:21:20;99646.34;;;24.21;52.79
40075;BME280;26529;51.530;11.754;2022-08-19T04:23:47;99644.91;;;24.27;52.91
40075;BME280;26529;51.530;11.754;2022-08-19T04:26:18;99651.13;;;24.27;53.04
40075;BME280;26529;51.530;11.754;2022-08-19T04:28:45;99656.59;;;24.25;53.55
40075;BME280;26529;51.530;11.754;2022-08-19T04:31:16;99663.50;;;24.28;52.80
40075;BME280;26529;51.530;11.754;2022-08-19T04:33:42;99666.59;;;24.33;53.04
40075;BME280;26529;51.530;11.754;2022-08-19T04:36:08;99660.72;;;24.20;52.99
40075;BME280;26529;51.530;11.754;2022-08-19T04:38:35;99657.88;;;24.21;52.94
40075;BME280;26529;51.530;11.754;2022-08-19T04:41:04;99652.28;;;24.15;52.71
40075;BME280;26529;51.530;11.754;2022-08-19T04:43:49;99640.97;;;24.21;52.76
40075;BME280;26529;51.530;11.754;2022-08-19T04:46:15;99639.88;;;24.14;52.51
40075;BME280;26529;51.530;11.754;2022-08-19T04:48:42;99638.75;;;24.16;52.71
40075;BME280;26529;51.530;11.754;2022-08-19T04:51:11;99634.81;;;24.10;52.64
40075;BME280;26529;51.530;11.754;2022-08-19T04:53:39;99639.16;;;24.11;52.52
40075;BME280;26529;51.530;11.754;2022-08-19T04:56:11;99636.47;;;24.11;52.63
40075;BME280;26529;51.530;11.754;2022-08-19T04:58:38;99639.34;;;24.10;52.76
40075;BME280;26529;51.530;11.754;2022-08-19T05:01:05;99640.47;;;24.07;52.53
40075;BME280;26529;51.530;11.754;2022-08-19T05:03:31;99635.94;;;24.08;52.72
40075;BME280;26529;51.530;11.754;2022-08-19T05:06:07;99644.13;;;24.06;52.61
40075;BME280;26529;51.530;11.754;2022-08-19T05:08:34;99638.78;;;24.06;52.53
40075;BME280;26529;51.530;11.754;2022-08-19T05:11:00;99630.84;;;24.05;52.74
40075;BME280;26529;51.530;11.754;2022-08-19T05:13:26;99634.13;;;24.08;52.74
40075;BME280;26529;51.530;11.754;2022-08-19T05:15:57;99636.47;;;24.02;52.83
40075;BME280;26529;51.530;11.754;2022-08-19T05:18:22;99646.06;;;24.04;52.86
40075;BME280;26529;51.530;11.754;2022-08-19T05:21:09;99646.06;;;24.04;52.76
40075;BME280;26529;51.530;11.754;2022-08-19T05:23:53;99641.69;;;24.03;52.82
40075;BME280;26529;51.530;11.754;2022-08-19T05:26:19;99646.22;;;24.03;52.71
40075;BME280;26529;51.530;11.754;2022-08-19T05:28:45;99647.19;;;24.02;52.78
40075;BME280;26529;51.530;11.754;2022-08-19T05:31:10;99643.00;;;23.99;52.68
40075;BME280;26529;51.530;11.754;2022-08-19T05:33:36;99648.34;;;23.99;52.92
40075;BME280;26529;51.530;11.754;2022-08-19T05:36:03;99651.03;;;23.99;53.02
40075;BME280;26529;51.530;11.754;2022-08-19T05:38:29;99648.34;;;23.99;52.98
40075;BME280;26529;51.530;11.754;2022-08-19T05:40:55;99658.22;;;24.08;52.63
40075;BME280;26529;51.530;11.754;2022-08-19T05:43:20;99660.44;;;24.03;52.97
40075;BME280;26529;51.530;11.754;2022-08-19T05:45:46;99666.66;;;24.04;52.75
40075;BME280;26529;51.530;11.754;2022-08-19T05:48:12;99654.66;;;23.98;53.15
40075;BME280;26529;51.530;11.754;2022-08-19T05:50:39;99659.19;;;23.97;53.16
40075;BME280;26529;51.530;11.754;2022-08-19T05:53:05;99650.72;;;24.02;53.31
40075;BME280;26529;51.530;11.754;2022-08-19T05:55:31;99648.34;;;23.99;53.17
40075;BME280;26529;51.530;11.754;2022-08-19T05:57:57;99654.09;;;24.04;53.11
40075;BME280;26529;51.530;11.754;2022-08-19T06:00:22;99659.34;;;23.96;53.25
40075;BME280;26529;51.530;11.754;2022-08-19T06:02:48;99667.22;;;23.97;53.28
40075;BME280;26529;51.530;11.754;2022-08-19T06:05:13;99662.69;;;23.98;53.13
40075;BME280;26529;51.530;11.754;2022-08-19T06:07:39;99657.53;;;23.96;53.28
40075;BME280;26529;51.530;11.754;2022-08-19T06:10:07;99662.16;;;23.94;53.50
40075;BME280;26529;51.530;11.754;2022-08-19T06:12:34;99663.00;;;23.95;53.58
40075;BME280;26529;51.530;11.754;2022-08-19T06:15:03;99661.16;;;23.95;53.77
40075;BME280;26529;51.530;11.754;2022-08-19T06:17:29;99662.44;;;23.91;53.61
40075;BME280;26529;51.530;11.754;2022-08-19T06:19:55;99661.59;;;23.91;53.58
40075;BME280;26529;51.530;11.754;2022-08-19T06:22:21;99669.63;;;23.91;53.46
40075;BME280;26529;51.530;11.754;2022-08-19T06:24:46;99673.28;;;23.90;53.64
40075;BME280;26529;51.530;11.754;2022-08-19T06:27:12;99669.63;;;23.91;53.63
40075;BME280;26529;51.530;11.754;2022-08-19T06:29:37;99659.22;;;23.88;53.91
40075;BME280;26529;51.530;11.754;2022-08-19T06:32:03;99652.31;;;23.85;53.88
40075;BME280;26529;51.530;11.754;2022-08-19T06:34:31;99649.50;;;23.87;54.06
40075;BME280;26529;51.530;11.754;2022-08-19T06:36:59;99659.91;;;23.90;53.86
40075;BME280;26529;51.530;11.754;2022-08-19T06:39:28;99666.25;;;23.89;53.60
40075;BME280;26529;51.530;11.754;2022-08-19T06:41:57;99670.63;;;23.90;53.85
40075;BME280;26529;51.530;11.754;2022-08-19T06:44:25;99679.66;;;23.89;53.74
40075;BME280;26529;51.530;11.754;2022-08-19T06:46:52;99678.22;;;23.84;53.82
40075;BME280;26529;51.530;11.754;2022-08-19T06:49:17;99683.59;;;23.84;53.86
40075;BME280;26529;51.530;11.754;2022-08-19T06:51:45;99687.69;;;23.79;53.99
40075;BME280;26529;51.530;11.754;2022-08-19T06:54:13;99700.50;;;23.85;53.86
40075;BME280;26529;51.530;11.754;2022-08-19T06:56:39;99702.63;;;23.81;53.65
40075;BME280;26529;51.530;11.754;2022-08-19T06:59:07;99724.47;;;23.87;53.67
40075;BME280;26529;51.530;11.754;2022-08-19T07:01:36;99729.66;;;23.88;53.71
40075;BME280;26529;51.530;11.754;2022-08-19T07:04:04;99728.94;;;23.96;53.36
40075;BME280;26529;51.530;11.754;2022-08-19T07:06:29;99735.00;;;23.88;53.76
40075;BME280;26529;51.530;11.754;2022-08-19T07:08:57;99737.13;;;23.84;53.65
40075;BME280;26529;51.530;11.754;2022-08-19T07:11:23;99744.16;;;23.85;53.89
40075;BME280;26529;51.530;11.754;2022-08-19T07:13:50;99750.25;;;23.88;53.68
40075;BME280;26529;51.530;11.754;2022-08-19T07:16:18;99748.94;;;23.92;53.46
40075;BME280;26529;51.530;11.754;2022-08-19T07:18:48;99750.38;;;23.86;53.65
40075;BME280;26529;51.530;11.754;2022-08-19T07:21:21;99756.84;;;23.83;53.53
40075;BME280;26529;51.530;11.754;2022-08-19T07:23:48;99767.56;;;23.83;53.47
40075;BME280;26529;51.530;11.754;2022-08-19T07:26:17;99774.91;;;23.81;53.68
40075;BME280;26529;51.530;11.754;2022-08-19T07:28:45;99776.59;;;23.82;53.54
40075;BME280;26529;51.530;11.754;2022-08-19T07:31:12;99781.63;;;23.85;53.73
40075;BME280;26529;51.530;11.754;2022-08-19T07:33:39;99780.81;;;23.85;53.39
40075;BME280;26529;51.530;11.754;2022-08-19T07:36:07;99789.28;;;23.90;53.29
40075;BME280;26529;51.530;11.754;2022-08-19T07:38:35;99786.88;;;23.97;53.28
40075;BME280;26529;51.530;11.754;2022-08-19T07:41:00;99788.00;;;23.84;53.51
40075;BME280;26529;51.530;11.754;2022-08-19T07:43:27;99789.69;;;23.85;53.51
40075;BME280;26529;51.530;11.754;2022-08-19T07:45:54;99792.66;;;23.82;53.60
40075;BME280;26529;51.530;11.754;2022-08-19T07:48:23;99788.16;;;23.93;53.27
40075;BME280;26529;51.530;11.754;2022-08-19T07:50:55;99796.03;;;23.84;53.39
40075;BME280;26529;51.530;11.754;2022-08-19T07:53:21;99796.03;;;23.84;53.57
40075;BME280;26529;51.530;11.754;2022-08-19T07:55:48;99804.34;;;23.81;53.72
40075;BME280;26529;51.530;11.754;2022-08-19T07:58:17;99801.94;;;23.88;53.38
40075;BME280;26529;51.530;11.754;2022-08-19T08:00:44;99796.03;;;23.84;53.50
40075;BME280;26529;51.530;11.754;2022-08-19T08:03:11;99787.28;;;23.82;53.69
40075;BME280;26529;51.530;11.754;2022-08-19T08:05:37;99788.41;;;23.80;53.70
40075;BME280;26529;51.530;11.754;2022-08-19T08:08:21;99796.19;;;23.83;53.59
40075;BME280;26529;51.530;11.754;2022-08-19T08:11:07;99795.47;;;23.81;53.64
40075;BME280;26529;51.530;11.754;2022-08-19T08:13:33;99799.41;;;23.77;53.67
40075;BME280;26529;51.530;11.754;2022-08-19T08:16:01;99805.59;;;23.77;53.73
40075;BME280;26529;51.530;11.754;2022-08-19T08:18:27;99804.34;;;23.81;53.57
40075;BME280;26529;51.530;11.754;2022-08-19T08:20:52;99810.69;;;23.80;53.75
40075;BME280;26529;51.530;11.754;2022-08-19T08:23:18;99817.16;;;23.78;53.82
40075;BME280;26529;51.530;11.754;2022-08-19T08:25:56;99815.31;;;23.68;54.04
40075;BME280;26529;51.530;11.754;2022-08-19T08:28:22;99815.88;;;23.72;53.96
40075;BME280;26529;51.530;11.754;2022-08-19T08:30:49;99816.03;;;23.70;53.92
40075;BME280;26529;51.530;11.754;2022-08-19T08:33:20;99809.56;;;23.73;53.91
40075;BME280;26529;51.530;11.754;2022-08-19T08:35:46;99813.19;;;23.72;53.80
40075;BME280;26529;51.530;11.754;2022-08-19T08:38:12;99812.22;;;23.73;53.77
40075;BME280;26529;51.530;11.754;2022-08-19T08:43:13;99821.09;;;23.74;53.70
40075;BME280;26529;51.530;11.754;2022-08-19T08:45:48;99814.34;;;23.79;53.28
40075;BME280;26529;51.530;11.754;2022-08-19T08:48:30;99820.25;;;23.73;53.57
40075;BME280;26529;51.530;11.754;2022-08-19T08:51:00;99828.13;;;23.75;53.57
40075;BME280;26529;51.530;11.754;2022-08-19T08:53:27;99819.16;;;23.76;53.55
40075;BME280;26529;51.530;11.754;2022-08-19T08:55:53;99834.34;;;23.75;53.54
40075;BME280;26529;51.530;11.754;2022-08-19T08:58:25;99830.97;;;23.83;53.37
40075;BME280;26529;51.530;11.754;2022-08-19T09:00:53;99841.53;;;23.75;53.65
40075;BME280;26529;51.530;11.754;2022-08-19T09:03:25;99839.97;;;23.72;53.74
40075;BME280;26529;51.530;11.754;2022-08-19T09:08:38;99839.97;;;23.72;53.88
40075;BME280;26529;51.530;11.754;2022-08-19T09:11:15;99839.25;;;23.70;53.74
40075;BME280;26529;51.530;11.754;2022-08-19T09:14:48;99846.47;;;23.69;53.94
40075;BME280;26529;51.530;11.754;2022-08-19T09:16:47;99841.66;;;23.63;53.89
40075;BME280;26529;51.530;11.754;2022-08-19T09:19:14;99848.81;;;23.63;54.07
40075;BME280;26529;51.530;11.754;2022-08-19T09:21:40;99842.50;;;23.64;53.87
40075;BME280;26529;51.530;11.754;2022-08-19T09:24:06;99840.81;;;23.63;53.79
40075;BME280;26529;51.530;11.754;2022-08-19T09:26:32;99847.84;;;23.64;53.94
40075;BME280;26529;51.530;11.754;2022-08-19T09:28:58;99852.66;;;23.70;53.98
40075;BME280;26529;51.530;11.754;2022-08-19T09:31:27;99855.75;;;23.65;53.84
40075;BME280;26529;51.530;11.754;2022-08-19T09:33:54;99849.69;;;23.63;53.87
40075;BME280;26529;51.530;11.754;2022-08-19T09:36:24;99849.81;;;23.62;53.92
40075;BME280;26529;51.530;11.754;2022-08-19T09:38:51;99854.47;;;23.60;53.90
40075;BME280;26529;51.530;11.754;2022-08-19T09:41:21;99848.13;;;23.61;53.92
40075;BME280;26529;51.530;11.754;2022-08-19T09:43:50;99848.97;;;23.61;53.83
40075;BME280;26529;51.530;11.754;2022-08-19T09:46:21;99847.84;;;23.64;53.81
40075;BME280;26529;51.530;11.754;2022-08-19T09:48:47;99850.69;;;23.62;53.69
40075;BME280;26529;51.530;11.754;2022-08-19T09:51:22;99845.91;;;23.66;53.63
40075;BME280;26529;51.530;11.754;2022-08-19T09:53:49;99856.84;;;23.63;53.82
40075;BME280;26529;51.530;11.754;2022-08-19T09:56:17;99852.50;;;23.62;53.65
40075;BME280;26529;51.530;11.754;2022-08-19T09:58:42;99845.16;;;23.64;53.62
40075;BME280;26529;51.530;11.754;2022-08-19T10:01:09;99852.94;;;23.67;53.74
40075;BME280;26529;51.530;11.754;2022-08-19T10:03:36;99855.88;;;23.64;53.57
40075;BME280;26529;51.530;11.754;2022-08-19T10:06:04;99848.97;;;23.61;53.77
40075;BME280;26529;51.530;11.754;2022-08-19T10:08:32;99843.59;;;23.61;53.91
40075;BME280;26529;51.530;11.754;2022-08-19T10:10:58;99829.84;;;23.66;53.57
40075;BME280;26529;51.530;11.754;2022-08-19T10:13:26;99839.13;;;23.62;53.69
40075;BME280;26529;51.530;11.754;2022-08-19T10:15:54;99836.88;;;23.67;53.57
40075;BME280;26529;51.530;11.754;2022-08-19T10:18:22;99850.06;;;23.58;53.80
40075;BME280;26529;51.530;11.754;2022-08-19T10:20:49;99840.09;;;23.61;53.66
40075;BME280;26529;51.530;11.754;2022-08-19T10:23:16;99836.84;;;23.57;53.78
40075;BME280;26529;51.530;11.754;2022-08-19T10:25:43;99835.00;;;23.57;53.44
40075;BME280;26529;51.530;11.754;2022-08-19T10:28:08;99835.00;;;23.57;53.59
40075;BME280;26529;51.530;11.754;2022-08-19T10:30:38;99833.06;;;23.60;53.41
40075;BME280;26529;51.530;11.754;2022-08-19T10:33:05;99839.13;;;23.62;53.30
40075;BME280;26529;51.530;11.754;2022-08-19T10:35:31;99835.75;;;23.60;53.42
40075;BME280;26529;51.530;11.754;2022-08-19T10:37:56;99835.75;;;23.60;53.41
40075;BME280;26529;51.530;11.754;2022-08-19T10:40:27;99844.47;;;23.62;53.34
40075;BME280;26529;51.530;11.754;2022-08-19T10:42:54;99837.69;;;23.57;53.29
40075;BME280;26529;51.530;11.754;2022-08-19T10:45:21;99847.41;;;23.58;53.18
40075;BME280;26529;51.530;11.754;2022-08-19T10:47:50;99834.88;;;23.59;53.46
40075;BME280;26529;51.530;11.754;2022-08-19T10:50:16;99838.66;;;23.56;53.33
40075;BME280;26529;51.530;11.754;2022-08-19T10:53:04;99837.69;;;23.57;53.35
40075;BME280;26529;51.530;11.754;2022-08-19T10:55:30;99837.69;;;23.57;53.37
40075;BME280;26529;51.530;11.754;2022-08-19T10:58:17;99841.09;;;23.60;53.26
40075;BME280;26529;51.530;11.754;2022-08-19T11:00:43;99845.72;;;23.57;53.21
40075;BME280;26529;51.530;11.754;2022-08-19T11:03:15;99835.75;;;23.60;53.09
40075;BME280;26529;51.530;11.754;2022-08-19T11:05:41;99833.19;;;23.58;53.30
40075;BME280;26529;51.530;11.754;2022-08-19T11:08:07;99835.16;;;23.56;53.24
40075;BME280;26529;51.530;11.754;2022-08-19T11:10:40;99831.75;;;23.54;53.25
40075;BME280;26529;51.530;11.754;2022-08-19T11:13:06;99830.66;;;23.56;52.82
40075;BME280;26529;51.530;11.754;2022-08-19T11:15:31;99829.66;;;23.57;53.02
40075;BME280;26529;51.530;11.754;2022-08-19T11:17:57;99830.50;;;23.58;53.10
40075;BME280;26529;51.530;11.754;2022-08-19T11:20:23;99828.97;;;23.55;53.24
40075;BME280;26529;51.530;11.754;2022-08-19T11:22:51;99819.53;;;23.61;53.00
40075;BME280;26529;51.530;11.754;2022-08-19T11:25:17;99823.59;;;23.55;53.33
40075;BME280;26529;51.530;11.754;2022-08-19T11:27:43;99824.59;;;23.54;53.01
40075;BME280;26529;51.530;11.754;2022-08-19T11:30:11;99825.28;;;23.56;52.98
40075;BME280;26529;51.530;11.754;2022-08-19T11:32:37;99821.38;;;23.61;52.94
40075;BME280;26529;51.530;11.754;2022-08-19T11:35:04;99821.66;;;23.67;52.81
40075;BME280;26529;51.530;11.754;2022-08-19T11:37:30;99815.44;;;23.57;52.92
40075;BME280;26529;51.530;11.754;2022-08-19T11:39:55;99812.63;;;23.58;53.00
40075;BME280;26529;51.530;11.754;2022-08-19T11:42:21;99820.38;;;23.62;52.92
40075;BME280;26529;51.530;11.754;2022-08-19T11:45:05;99812.63;;;23.58;52.97
40075;BME280;26529;51.530;11.754;2022-08-19T11:47:31;99821.81;;;23.66;52.82
40075;BME280;26529;51.530;11.754;2022-08-19T11:49:56;99828.66;;;23.58;52.85
40075;BME280;26529;51.530;11.754;2022-08-19T11:52:22;99817.69;;;23.62;52.88
40075;BME280;26529;51.530;11.754;2022-08-19T11:54:48;99825.88;;;23.70;52.77
40075;BME280;26529;51.530;11.754;2022-08-19T11:57:13;99832.91;;;23.61;53.04
40075;BME280;26529;51.530;11.754;2022-08-19T11:59:46;99832.91;;;23.61;52.85
40075;BME280;26529;51.530;11.754;2022-08-19T12:02:12;99835.19;;;23.66;52.93
40075;BME280;26529;51.530;11.754;2022-08-19T12:04:39;99834.19;;;23.67;52.84
40075;BME280;26529;51.530;11.754;2022-08-19T12:07:04;99839.69;;;23.75;52.73
40075;BME280;26529;51.530;11.754;2022-08-19T12:09:30;99847.59;;;23.67;52.69
40075;BME280;26529;51.530;11.754;2022-08-19T12:11:56;99845.91;;;23.66;52.95
40075;BME280;26529;51.530;11.754;2022-08-19T12:14:22;99858.16;;;23.78;52.67
40075;BME280;26529;51.530;11.754;2022-08-19T12:16:48;99850.66;;;23.72;52.72
40075;BME280;26529;51.530;11.754;2022-08-19T12:19:13;99860.13;;;23.76;52.68
40075;BME280;26529;51.530;11.754;2022-08-19T12:21:39;99853.78;;;23.77;52.69
40075;BME280;26529;51.530;11.754;2022-08-19T12:24:05;99865.63;;;23.84;52.55
40075;BME280;26529;51.530;11.754;2022-08-19T12:26:31;99861.00;;;23.87;52.55
40075;BME280;26529;51.530;11.754;2022-08-19T12:28:57;99855.22;;;23.81;52.71
40075;BME280;26529;51.530;11.754;2022-08-19T12:31:25;99853.94;;;23.85;52.85
40075;BME280;26529;51.530;11.754;2022-08-19T12:33:51;99846.63;;;23.88;52.54
40075;BME280;26529;51.530;11.754;2022-08-19T12:36:17;99848.56;;;23.85;52.63
40075;BME280;26529;51.530;11.754;2022-08-19T12:38:43;99841.81;;;23.81;52.84
40075;BME280;26529;51.530;11.754;2022-08-19T12:41:14;99856.59;;;23.85;52.73
40075;BME280;26529;51.530;11.754;2022-08-19T12:43:40;99842.53;;;23.83;52.94
40075;BME280;26529;51.530;11.754;2022-08-19T12:46:07;99836.63;;;23.90;52.63
40075;BME280;26529;51.530;11.754;2022-08-19T12:48:33;99826.75;;;23.90;52.55
40075;BME280;26529;51.530;11.754;2022-08-19T12:50:59;99821.09;;;23.83;52.78
40075;BME280;26529;51.530;11.754;2022-08-19T12:53:25;99819.13;;;23.85;52.67
40075;BME280;26529;51.530;11.754;2022-08-19T12:55:58;99818.44;;;23.83;52.67
40075;BME280;26529;51.530;11.754;2022-08-19T12:58:25;99814.38;;;23.89;52.62